Flight Track Log - Related Links

Times and Time Zones

All times are in EDT time to prevent confusion due to time zone crossing. See the DAL4165 flight status page for this flight to view local times or setup timezone preferences in your user account.

Time Position Orientation Groundspeed Altitude Reporting Facility
EDT Latitude Longitude Course Direction KTS MPH feet Rate Location/Type
Tue 07:16:46 PM 35.3997 -97.5919 90° East 131 151 2,000  Level Fort Worth Center
Tue 07:17:05 PM 35.4122 -97.5894 North 146 168 2,700 2,609 Climbing Fort Worth Center
Tue 07:17:55 PM 35.4561 -97.5639 25° Northeast 197 227 5,000 2,236 Climbing Fort Worth Center
Tue 07:18:55 PM 35.4561 -97.4900 90° East 283 326 6,800 1,950 Climbing Fort Worth Center
Tue 07:19:00 PM 35.3965 -97.1655 85° East  Level FlightAware Approximate
Tue 07:19:55 PM 35.4500 -97.3881 94° East 288 331 8,900  Level Fort Worth Center
Tue 07:20:00 PM 35.4001 -97.0206 90° East  Level FlightAware Approximate
Tue 07:20:55 PM 35.4394 -97.2708 96° East 314 361 11,000  Level Fort Worth Center
Tue 07:21:00 PM 35.4000 -96.8755 90° East  Level FlightAware Approximate
Tue 07:21:55 PM 35.4289 -97.1358 95° East 364 419 12,600  Level Fort Worth Center
Tue 07:22:00 PM 35.4000 -96.7304 90° East  Level FlightAware Approximate
Tue 07:22:54 PM 35.4161 -97.0111 97° East 393 452 14,100  Level Fort Worth Center
Tue 07:23:55 PM 35.4031 -96.8583 96° East 427 491 15,900 1,835 Climbing Fort Worth Center
Tue 07:24:55 PM 35.4022 -96.7006 90° East 450 518 17,800 1,850 Climbing Fort Worth Center
Tue 07:25:55 PM 35.4011 -96.5400 90° East 461 531 19,600 7,600 Climbing Fort Worth Center
Tue 07:26:55 PM 35.4019 -96.3744 90° East 477 549 33,000 1,700 Climbing Fort Worth Center
Tue 07:27:55 PM 35.4025 -96.2089 90° East 477 549 23,000 -4,200 Descending Fort Worth Center
Tue 07:28:55 PM 35.4008 -96.0383 91° East 487 560 24,600 1,500 Climbing Fort Worth Center
Tue 07:29:55 PM 35.4008 -95.8653 90° East 493 567 26,000 1,550 Climbing Fort Worth Center
Tue 07:30:55 PM 35.4050 -95.6919 88° East 498 573 27,700 1,544 Climbing Fort Worth Center
Tue 07:32:46 PM 35.4008 -95.3722 91° East 497 572 30,400 1,158 Climbing Memphis Center
Tue 07:33:46 PM 35.3997 -95.1939 90° East 502 578 31,000 300 Climbing Memphis Center
Tue 07:34:46 PM 35.3983 -95.0056 90° East 531 611 31,000  Level Memphis Center
Tue 07:35:46 PM 35.3947 -94.8194 91° East 547 629 31,000 1,000 Level Memphis Center
Tue 07:36:46 PM 35.3953 -94.6308 90° East 547 629 33,000 800 Climbing Memphis Center
Tue 07:37:46 PM 35.3908 -94.4472 92° East 547 629 32,600  Descending Memphis Center
Tue 07:38:46 PM 35.3864 -94.2636 92° East 547 629 33,000 200 Climbing Memphis Center
Tue 07:39:46 PM 35.3733 -94.0772 95° East 547 629 33,000  Level Memphis Center
Tue 07:40:46 PM 35.3600 -93.8908 95° East 547 629 33,000  Level Memphis Center
Tue 07:41:46 PM 35.3464 -93.7044 95° East 547 629 33,000  Level Memphis Center
Tue 07:42:46 PM 35.3322 -93.5231 95° East 542 624 33,000  Level Memphis Center
Tue 07:43:46 PM 35.3158 -93.3419 96° East 542 624 33,000  Level Memphis Center
Tue 07:44:46 PM 35.3075 -93.1686 93° East 535 616 33,000  Level Memphis Center
Tue 07:45:46 PM 35.2947 -92.9900 95° East 530 610 33,000  Level Memphis Center
Tue 07:46:46 PM 35.2817 -92.8142 95° East 530 610 33,000  Level Memphis Center
Tue 07:47:46 PM 35.2583 -92.6000 98° East 537 618 33,000  Level Memphis Center
Tue 07:48:46 PM 35.2469 -92.4217 94° East 542 624 33,000  Level Memphis Center
Tue 07:49:46 PM 35.2311 -92.2381 96° East 542 624 33,000  Level Memphis Center
Tue 07:50:46 PM 35.2192 -92.0575 95° East 542 624 33,000  Level Memphis Center
Tue 07:51:46 PM 35.2006 -91.8767 97° East 538 619 33,000  Level Memphis Center
Tue 07:52:46 PM 35.1839 -91.6986 96° East 538 619 33,000  Level Memphis Center
Tue 07:53:46 PM 35.1667 -91.5206 97° East 538 619 33,000  Level Memphis Center
Tue 07:54:46 PM 35.1517 -91.3425 96° East 538 619 33,000  Level Memphis Center
Tue 07:55:46 PM 35.1342 -91.1619 97° East 538 619 33,000  Level Memphis Center
Tue 07:56:46 PM 35.1142 -90.9842 98° East 538 619 33,000  Level Memphis Center
Tue 07:57:46 PM 35.0964 -90.8064 97° East 538 619 33,000  Level Memphis Center
Tue 07:58:46 PM 35.0781 -90.6286 97° East 538 619 33,000  Level Memphis Center
Tue 07:59:46 PM 35.0617 -90.4533 96° East 532 612 33,000  Level Memphis Center
Tue 08:00:46 PM 35.0428 -90.2758 97° East 527 606 33,000  Level Memphis Center
Tue 08:01:46 PM 35.0239 -90.0958 97° East 527 606 33,000  Level Memphis Center
Tue 08:02:46 PM 35.0044 -89.9211 98° East 527 606 33,000  Level Memphis Center
Tue 08:03:46 PM 34.9767 -89.7439 101° East 527 606 33,000  Level Memphis Center
Tue 08:04:46 PM 34.9506 -89.5667 100° East 527 606 33,000  Level Memphis Center
Tue 08:05:46 PM 34.9242 -89.3922 100° East 527 606 33,000  Level Memphis Center
Tue 08:06:46 PM 34.8978 -89.2075 100° East 532 612 33,000  Level Memphis Center
Tue 08:07:46 PM 34.8753 -89.0586 100° East 522 601 33,000  Level Memphis Center
Tue 08:08:46 PM 34.8503 -88.8844 100° East 522 601 33,000  Level Memphis Center
Tue 08:09:46 PM 34.8231 -88.7078 101° East 522 601 33,000  Level Memphis Center
Tue 08:10:46 PM 34.7956 -88.5311 101° East 522 601 33,000  Level Memphis Center
Tue 08:11:46 PM 34.7678 -88.3547 101° East 522 601 33,000  Level Memphis Center
Tue 08:12:46 PM 34.7400 -88.1836 101° East 522 601 33,000  Level Memphis Center
Tue 08:13:46 PM 34.7117 -88.0075 101° East 522 601 33,000  Level Memphis Center
Tue 08:14:46 PM 34.6853 -87.8314 100° East 522 601 33,000  Level Memphis Center
Tue 08:15:46 PM 34.6567 -87.6606 101° East 522 601 33,000  Level Memphis Center
Tue 08:17:41 PM 34.6019 -87.3219 101° East 508 585 33,000  Level Atlanta Center
Tue 08:18:41 PM 34.5667 -87.1514 104° East 508 585 33,000  Level Atlanta Center
Tue 08:19:41 PM 34.5333 -86.9789 103° East 513 590 33,000 -200 Level Atlanta Center
Tue 08:20:41 PM 34.4997 -86.8089 103° East 513 590 32,600 -750 Descending Atlanta Center
Tue 08:21:41 PM 34.4681 -86.6389 103° East 513 590 31,500 -1,300 Descending Atlanta Center
Tue 08:22:41 PM 34.4339 -86.4717 104° East 513 590 30,000 -1,600 Descending Atlanta Center
Tue 08:23:41 PM 34.4017 -86.3072 103° East 513 590 28,300 -1,700 Descending Atlanta Center
Tue 08:24:41 PM 34.3711 -86.1428 103° East 508 585 26,600 -1,750 Descending Atlanta Center
Tue 08:25:41 PM 34.3403 -85.9858 103° East 492 566 24,800 -1,900 Descending Atlanta Center
Tue 08:26:41 PM 34.3072 -85.8294 104° East 481 554 22,800 -2,000 Descending Atlanta Center
Tue 08:27:41 PM 34.2781 -85.6803 103° East 462 532 20,800 -2,050 Descending Atlanta Center
Tue 08:28:41 PM 34.2486 -85.5289 103° East 462 532 18,700 -1,950 Descending Atlanta Center
Tue 08:29:41 PM 34.2189 -85.3878 104° East 443 510 16,900 -1,900 Descending Atlanta Center
Tue 08:30:41 PM 34.1911 -85.2467 103° East 432 497 14,900 -1,850 Descending Atlanta Center
Tue 08:31:41 PM 34.1486 -85.1006 109° East 427 491 13,200 -950 Descending Atlanta Center
Tue 08:32:41 PM 34.0806 -85.0119 133° Southeast 390 449 13,000 -650 Descending Atlanta Center
Tue 08:33:41 PM 34.0058 -84.9711 156° South 325 374 11,900 -1,500 Descending Atlanta Center
Tue 08:34:41 PM 33.9244 -84.9400 162° South 310 357 10,000 -1,400 Descending Atlanta Center
Tue 08:35:41 PM 33.8475 -84.9092 162° South 296 341 9,100 -600 Descending Atlanta Center
Tue 08:36:41 PM 33.7725 -84.8761 160° South 290 334 8,800 -1,000 Descending Atlanta Center
Tue 08:37:41 PM 33.7019 -84.8303 152° Southeast 285 328 7,100 -1,405 Descending Atlanta Center
Tue 08:38:32 PM 33.6500 -84.7833 143° Southeast 280 322 6,200 -1,200 Descending Atlanta TRACON
Tue 08:40:26 PM 33.6333 -84.6167 97° East 252 290 3,800 -1,263 Descending Atlanta TRACON

Login

Don't have an account? Register now (free) for customized features, flight alerts, and more!